Terminal Aerodrome Forecast
Issued by NWS Boise, ID

Home | Current Version | Previous Version | Text Only | Print | Product List | Glossary On
Versions: 1 2 3 4 5 6 7 8 9 10 11 12 13 14 15 16 17 18 19 20 21 22 23
000
FTUS45 KBOI 050412 AAA
TAFBOI
TAF AMD
KBOI 050412Z 0504/0524 VRB06KT P6SM SCT120
      TEMPO 0504/0505 22020G35KT
     FM051300 31010KT P6SM SCT100
     FM052100 31015G25KT P6SM SCT100=

USA.gov is the U.S. government's official web portal to all federal, state and local government web resources and services.